Time;durP1;ratioP1;P1;durP2;ratioP2;P2;SDS_P1;SDS_P2;PMS_P1;PMS_P2;Temp;Humidity;BMP_temperature;BMP_pressure;BME280_temperature;BME280_humidity;BME280_pressure;Samples;Min_cycle;Max_cycle;Signal;HPM_P1;HPM_P2
2022/11/21 00:00:41;;;;;;;2.10;1.55;;;;;;;11.82;76.67;98788.69;7402551;19;20011;-91
2022/11/21 00:03:09;;;;;;;4.90;1.23;;;;;;;11.76;76.65;98783.09;7399208;19;20014;-91
2022/11/21 00:05:42;;;;;;;1.55;1.20;;;;;;;11.81;76.44;98782.34;7400704;19;20007;-91
2022/11/21 00:08:10;;;;;;;1.95;0.75;;;;;;;11.74;77.09;98785.63;7399527;19;20014;-90
2022/11/21 00:10:37;;;;;;;0.43;0.43;;;;;;;11.74;76.54;98785.63;7402265;19;20017;-90
2022/11/21 00:13:04;;;;;;;1.58;1.13;;;;;;;11.66;76.38;98792.22;7398346;19;20015;-90
2022/11/21 00:15:30;;;;;;;3.60;1.55;;;;;;;11.71;76.34;98786.66;7400708;19;20082;-90
2022/11/21 00:17:56;;;;;;;2.75;0.95;;;;;;;11.64;76.80;98778.78;7399335;19;20032;-91
2022/11/21 00:20:23;;;;;;;6.95;1.30;;;;;;;11.62;76.73;98784.09;7399523;19;20027;-90
2022/11/21 00:22:49;;;;;;;0.82;0.60;;;;;;;11.63;76.31;98785.63;7400568;19;20014;-91
2022/11/21 00:25:15;;;;;;;3.30;1.17;;;;;;;11.58;76.32;98783.59;7398127;19;20049;-91
2022/11/21 00:27:41;;;;;;;0.93;0.60;;;;;;;11.64;76.07;98778.78;7399942;19;20085;-91
2022/11/21 00:30:09;;;;;;;4.38;1.20;;;;;;;11.67;76.41;98766.66;7396812;19;20023;-90
2022/11/21 00:32:35;;;;;;;6.85;1.70;;;;;;;11.82;75.97;98758.00;7402001;19;20011;-90
2022/11/21 00:35:01;;;;;;;0.75;0.75;;;;;;;11.91;75.32;98747.31;7401370;19;20022;-91
2022/11/21 00:37:27;;;;;;;3.60;0.43;;;;;;;11.95;75.03;98741.47;7398960;19;20102;-91
2022/11/21 00:39:53;;;;;;;1.92;0.85;;;;;;;11.95;74.95;98733.84;7396909;19;20018;-90
2022/11/21 00:42:19;;;;;;;1.45;1.20;;;;;;;11.65;75.04;98729.34;7393871;19;20019;-91
2022/11/21 00:44:46;;;;;;;1.25;1.02;;;;;;;11.67;75.33;98722.03;7392688;19;20018;-90
2022/11/21 00:47:12;;;;;;;0.65;0.65;;;;;;;11.61;76.12;98715.66;7398336;19;20011;-91
2022/11/21 00:49:38;;;;;;;0.63;0.50;;;;;;;11.63;76.03;98715.91;7395073;19;20022;-90
2022/11/21 00:52:04;;;;;;;0.47;0.47;;;;;;;11.71;75.52;98722.53;7401823;19;20354;-90
2022/11/21 00:54:30;;;;;;;2.95;0.90;;;;;;;11.59;75.52;98720.22;7397991;19;20018;-90
2022/11/21 00:56:56;;;;;;;2.33;0.55;;;;;;;11.62;75.83;98733.91;7399430;19;20357;-90
2022/11/21 00:59:22;;;;;;;4.78;1.40;;;;;;;11.69;76.03;98732.66;7399490;19;20341;-90
2022/11/21 01:01:48;;;;;;;2.88;1.10;;;;;;;11.68;75.94;98734.69;7397819;19;20014;-90
2022/11/21 01:04:14;;;;;;;0.82;0.82;;;;;;;11.66;75.61;98736.44;7397721;19;20007;-90
2022/11/21 01:06:41;;;;;;;0.40;0.40;;;;;;;11.61;75.80;98735.16;7398151;19;20010;-90
2022/11/21 01:09:07;;;;;;;1.27;0.65;;;;;;;11.60;75.55;98739.25;7397911;19;20018;-90
2022/11/21 01:11:33;;;;;;;11.70;1.30;;;;;;;11.68;75.46;98739.50;7399235;19;20022;-90
2022/11/21 01:13:59;;;;;;;2.53;1.65;;;;;;;11.60;75.54;98749.63;7399123;19;20028;-90
2022/11/21 01:16:27;;;;;;;1.38;0.90;;;;;;;11.54;75.72;98746.88;7397547;19;20027;-90
2022/11/21 01:18:53;;;;;;;3.20;1.27;;;;;;;11.52;75.78;98749.38;7397241;19;20035;-90
2022/11/21 01:21:26;;;;;;;1.63;1.38;;;;;;;11.52;76.07;98754.94;7400198;19;20022;-90
2022/11/21 01:23:53;;;;;;;0.50;0.50;;;;;;;11.48;76.11;98753.72;7402807;19;20021;-89
2022/11/21 01:26:24;;;;;;;0.90;0.45;;;;;;;11.32;76.08;98758.03;7396661;19;20018;-90
2022/11/21 01:28:50;;;;;;;;;;;;;;;11.31;76.43;98757.25;7398451;19;20355;-90
2022/11/21 01:31:26;;;;;;;0.43;0.43;;;;;;;11.17;77.18;98751.94;7398306;19;19934;-90
2022/11/21 01:33:52;;;;;;;0.47;0.38;;;;;;;11.09;77.84;98743.31;7397614;19;20074;-90
2022/11/21 01:36:22;;;;;;;1.58;1.02;;;;;;;10.89;78.34;98756.72;7398608;19;20454;-90
2022/11/21 01:38:50;;;;;;;1.67;1.55;;;;;;;10.73;78.76;98746.31;7395712;19;20022;-90
2022/11/21 01:41:19;;;;;;;0.75;0.68;;;;;;;10.54;79.21;98744.00;7399049;19;20010;-90
2022/11/21 01:43:46;;;;;;;0.75;0.68;;;;;;;10.46;79.82;98731.81;7399486;19;20663;-90
2022/11/21 01:46:15;;;;;;;0.77;0.70;;;;;;;10.34;81.14;98727.50;7397878;19;20014;-90
2022/11/21 01:48:41;;;;;;;1.48;0.98;;;;;;;10.21;81.44;98729.97;7396195;19;20021;-90
2022/11/21 01:51:37;;;;;;;4.57;1.13;;;;;;;10.23;82.41;98719.09;7398813;19;20006;-90
2022/11/21 01:54:03;;;;;;;0.85;0.75;;;;;;;10.55;81.30;98714.13;7402729;19;20477;-91
2022/11/21 01:56:34;;;;;;;0.45;0.45;;;;;;;10.67;80.05;98704.53;7396688;19;20030;-90
2022/11/21 01:59:03;;;;;;;0.90;0.60;;;;;;;10.65;80.63;98699.47;7395684;19;20023;-90
2022/11/21 02:01:32;;;;;;;0.52;0.52;;;;;;;10.59;80.58;98684.78;7398948;19;20881;-90
2022/11/21 02:04:01;;;;;;;0.85;0.85;;;;;;;10.00;81.44;98678.53;7395779;19;20750;-91
2022/11/21 02:06:30;;;;;;;0.75;0.63;;;;;;;10.52;80.79;98676.94;7397574;19;20011;-91
2022/11/21 02:08:58;;;;;;;1.33;1.00;;;;;;;10.57;80.51;98670.59;7396968;19;20074;-90
2022/11/21 02:11:39;;;;;;;0.55;0.25;;;;;;;10.49;81.09;98668.81;7397477;19;20043;-91
2022/11/21 02:14:05;;;;;;;;;;;;;;;10.63;80.43;98665.78;7398188;19;20015;-90
2022/11/21 02:16:33;;;;;;;6.18;0.98;;;;;;;10.68;80.32;98660.75;7393719;19;19911;-91
2022/11/21 02:19:03;;;;;;;0.40;0.40;;;;;;;10.60;80.31;98657.72;7393670;19;20822;-91
2022/11/21 02:21:43;;;;;;;0.95;0.73;;;;;;;10.65;80.58;98646.56;7397643;19;20453;-91
2022/11/21 02:24:23;;;;;;;6.80;0.55;;;;;;;10.66;80.96;98639.75;7400789;19;20104;-91
2022/11/21 02:26:49;;;;;;;1.40;0.82;;;;;;;10.74;80.92;98642.78;7395586;19;20019;-91
2022/11/21 02:29:16;;;;;;;0.43;0.43;;;;;;;10.91;80.84;98634.44;7394057;19;20011;-91
2022/11/21 02:31:42;;;;;;;0.30;0.30;;;;;;;10.91;81.11;98635.19;7397957;19;20023;-92
2022/11/21 02:34:08;;;;;;;0.98;0.90;;;;;;;10.93;81.41;98631.91;7393299;19;20007;-91
2022/11/21 02:36:40;;;;;;;0.52;0.43;;;;;;;11.02;81.21;98623.28;7396252;19;20312;-92
2022/11/21 02:39:12;;;;;;;0.50;0.50;;;;;;;11.20;81.17;98609.56;7395575;19;20828;-92
2022/11/21 02:41:47;;;;;;;3.80;1.35;;;;;;;11.30;81.21;98610.06;7399521;19;20070;-92
2022/11/21 02:44:38;;;;;;;2.17;0.70;;;;;;;11.28;81.66;98604.97;7396107;19;20043;-92
2022/11/21 02:47:04;;;;;;;0.22;0.22;;;;;;;5.31;100.00;98614.69;7396986;19;20015;-92
2022/11/21 02:49:40;;;;;;;1.60;0.82;;;;;;;3.47;100.00;98616.16;7395232;19;20032;-91
2022/11/21 02:52:06;;;;;;;1.23;0.75;;;;;;;4.62;100.00;98597.59;7396487;19;20035;-92
2022/11/21 02:54:32;;;;;;;1.45;0.93;;;;;;;9.50;100.00;98577.50;7395925;19;20477;-92
2022/11/21 02:56:58;;;;;;;5.15;0.70;;;;;;;10.35;100.00;98570.38;7396411;19;20019;-91
2022/11/21 02:59:24;;;;;;;1.20;0.50;;;;;;;10.81;100.00;98552.38;7394850;19;20016;-92
2022/11/21 03:01:50;;;;;;;6.82;0.73;;;;;;;11.10;97.62;98552.59;7397646;19;20019;-91
2022/11/21 03:04:16;;;;;;;1.80;0.85;;;;;;;11.22;96.37;98545.72;7396027;19;20018;-92
2022/11/21 03:06:42;;;;;;;0.75;0.75;;;;;;;11.35;93.96;98539.59;7394871;19;20039;-91
2022/11/21 03:09:08;;;;;;;3.42;1.90;;;;;;;6.05;100.00;98561.16;7392897;19;20524;-91
2022/11/21 03:11:34;;;;;;;2.70;0.68;;;;;;;9.73;100.00;98540.16;7395888;19;20410;-91
2022/11/21 03:14:01;;;;;;;0.93;0.88;;;;;;;10.82;100.00;98542.78;7400920;19;20015;-91
2022/11/21 03:16:27;;;;;;;10.32;1.85;;;;;;;11.10;97.23;98541.47;7403605;19;20334;-92
2022/11/21 03:18:53;;;;;;;0.30;0.30;;;;;;;11.08;95.81;98532.84;7403503;19;20469;-92
2022/11/21 03:21:19;;;;;;;0.80;0.77;;;;;;;11.16;94.27;98519.13;7403824;19;20014;-91
2022/11/21 03:23:45;;;;;;;4.32;0.98;;;;;;;11.22;94.16;98512.28;7405202;19;20347;-91
2022/11/21 03:26:11;;;;;;;1.10;0.65;;;;;;;11.21;94.32;98507.22;7401112;19;20485;-91
2022/11/21 03:28:37;;;;;;;0.47;0.47;;;;;;;11.23;94.30;98504.69;7397996;19;20019;-90
2022/11/21 03:31:03;;;;;;;0.28;0.28;;;;;;;10.38;95.22;98505.38;7403410;19;20323;-88
2022/11/21 03:33:29;;;;;;;1.58;0.93;;;;;;;11.06;95.37;98512.34;7402109;19;20479;-89
2022/11/21 03:35:55;;;;;;;1.17;0.60;;;;;;;10.85;94.79;98503.53;7402008;19;20035;-89
2022/11/21 03:38:22;;;;;;;0.82;0.82;;;;;;;10.89;95.33;98492.91;7402259;19;20014;-92
2022/11/21 03:40:48;;;;;;;0.75;0.75;;;;;;;10.86;95.51;98495.94;7401913;19;20028;-92
2022/11/21 03:43:14;;;;;;;1.27;0.65;;;;;;;10.66;97.03;98486.63;7398812;19;20477;-91
2022/11/21 03:45:40;;;;;;;2.72;0.73;;;;;;;10.60;97.26;98477.53;7400525;19;20484;-92
2022/11/21 03:48:06;;;;;;;0.45;0.45;;;;;;;10.77;97.13;98460.00;7398442;19;20023;-92
2022/11/21 03:50:32;;;;;;;5.15;0.95;;;;;;;10.75;96.15;98448.63;7401386;19;20092;-95
2022/11/21 03:52:58;;;;;;;0.10;0.10;;;;;;;10.85;95.46;98438.72;7398750;19;20022;-91
2022/11/21 03:55:24;;;;;;;1.13;0.65;;;;;;;10.68;95.34;98424.84;7402163;19;20014;-90
2022/11/21 03:57:51;;;;;;;0.35;0.35;;;;;;;10.87;94.83;98422.28;7401766;19;20421;-90
2022/11/21 04:00:17;;;;;;;0.43;0.43;;;;;;;10.84;94.87;98417.72;7400356;19;20026;-90
2022/11/21 04:02:43;;;;;;;1.02;0.50;;;;;;;10.72;94.58;98419.03;7399881;19;20022;-90
2022/11/21 04:05:09;;;;;;;0.65;0.65;;;;;;;10.60;94.85;98415.50;7398394;19;20015;-91
2022/11/21 04:07:35;;;;;;;0.93;0.50;;;;;;;10.79;93.94;98415.69;7401116;19;20022;-91
2022/11/21 04:10:01;;;;;;;0.40;0.40;;;;;;;10.74;93.53;98420.03;7399225;19;20810;-89
2022/11/21 04:12:27;;;;;;;7.25;0.70;;;;;;;10.54;94.49;98412.00;7402281;19;20453;-90
2022/11/21 04:14:54;;;;;;;1.42;0.68;;;;;;;10.45;95.25;98407.47;7400334;19;20022;-90
2022/11/21 04:17:20;;;;;;;0.50;0.40;;;;;;;10.38;96.08;98413.53;7399276;19;20019;-90
2022/11/21 04:19:46;;;;;;;0.73;0.43;;;;;;;10.64;95.15;98405.63;7401461;19;20036;-90
2022/11/21 04:22:12;;;;;;;0.20;0.20;;;;;;;10.68;94.67;98403.34;7402379;19;20018;-90
2022/11/21 04:24:38;;;;;;;0.77;0.70;;;;;;;10.70;95.14;98404.88;7395461;19;20034;-89
2022/11/21 04:27:04;;;;;;;0.63;0.40;;;;;;;10.66;95.80;98394.75;7393333;19;20019;-92
2022/11/21 04:29:30;;;;;;;0.95;0.95;;;;;;;10.82;95.11;98393.16;7394545;19;20465;-90
2022/11/21 04:31:56;;;;;;;0.40;0.40;;;;;;;10.84;95.65;98375.94;7401236;19;20011;-89
2022/11/21 04:34:22;;;;;;;0.20;0.20;;;;;;;10.98;95.84;98372.81;7399289;19;20074;-88
2022/11/21 04:36:48;;;;;;;0.30;0.30;;;;;;;11.10;95.86;98367.97;7398990;19;20013;-88
2022/11/21 04:39:15;;;;;;;2.45;0.30;;;;;;;11.29;96.28;98363.28;7398697;19;20078;-89
2022/11/21 04:41:41;;;;;;;0.90;0.40;;;;;;;11.37;95.77;98342.69;7403096;19;20480;-89
2022/11/21 04:44:07;;;;;;;0.10;0.10;;;;;;;11.46;96.05;98338.84;7396866;19;20023;-88
2022/11/21 04:46:33;;;;;;;0.20;0.20;;;;;;;11.29;96.99;98327.06;7399513;19;20014;-88
2022/11/21 04:48:59;;;;;;;0.20;0.20;;;;;;;11.30;97.80;98320.94;7396945;19;20085;-87
2022/11/21 04:51:25;;;;;;;0.20;0.20;;;;;;;11.35;97.69;98327.75;7400574;19;20416;-87
2022/11/21 04:53:51;;;;;;;0.40;0.40;;;;;;;11.35;98.25;98327.75;7401757;19;20018;-87
2022/11/21 04:56:17;;;;;;;0.20;0.20;;;;;;;11.33;98.13;98324.75;7397617;19;20027;-87
2022/11/21 04:58:44;;;;;;;0.85;0.63;;;;;;;11.39;98.49;98317.13;7399127;19;20018;-87
2022/11/21 05:01:10;;;;;;;1.67;0.40;;;;;;;11.42;98.44;98310.47;7398597;19;20018;-87
2022/11/21 05:03:36;;;;;;;0.15;0.15;;;;;;;11.57;98.42;98305.28;7397184;19;20018;-87
2022/11/21 05:06:03;;;;;;;0.43;0.43;;;;;;;11.53;98.79;98307.63;7397062;19;20011;-87
2022/11/21 05:08:29;;;;;;;0.50;0.45;;;;;;;11.63;98.40;98300.41;7397852;19;20021;-87
2022/11/21 05:13:39;;;;;;;1.05;0.40;;;;;;;11.66;98.68;98271.50;7395948;19;20031;-87
2022/11/21 05:16:06;;;;;;;2.15;0.30;;;;;;;11.61;99.16;98260.41;7398952;19;20022;-87
2022/11/21 05:18:32;;;;;;;0.55;0.22;;;;;;;11.62;99.30;98261.91;7396476;19;20019;-86
2022/11/21 05:21:00;;;;;;;0.10;0.10;;;;;;;11.59;100.00;98262.94;7396343;19;20029;-87
2022/11/21 05:23:26;;;;;;;0.40;0.38;;;;;;;11.60;100.00;98258.91;7396411;19;20496;-87
2022/11/21 05:25:52;;;;;;;0.52;0.52;;;;;;;11.76;100.00;98255.22;7396934;19;20031;-87
2022/11/21 05:28:18;;;;;;;1.35;0.28;;;;;;;11.80;100.00;98244.53;7396469;19;20347;-87
2022/11/21 05:30:44;;;;;;;0.20;0.10;;;;;;;11.95;100.00;98233.72;7396591;19;20039;-87
2022/11/21 05:33:11;;;;;;;0.40;0.40;;;;;;;11.96;100.00;98232.44;7393880;19;20030;-87
2022/11/21 05:35:37;;;;;;;0.10;0.05;;;;;;;11.93;100.00;98205.59;7395350;19;20035;-87
2022/11/21 05:38:03;;;;;;;0.10;0.10;;;;;;;11.96;100.00;98196.91;7395717;19;20014;-87
2022/11/21 05:40:29;;;;;;;0.10;0.10;;;;;;;11.90;100.00;98182.28;7396406;19;20022;-87
2022/11/21 05:45:40;;;;;;;0.20;0.20;;;;;;;11.74;100.00;98163.69;7395181;19;20042;-86
2022/11/21 05:48:06;;;;;;;5.60;0.50;;;;;;;11.75;100.00;98148.50;7393624;19;20373;-86
2022/11/21 05:50:35;;;;;;;1.65;0.60;;;;;;;11.70;100.00;98152.09;7398048;19;20066;-86
2022/11/21 05:53:05;;;;;;;0.20;0.20;;;;;;;11.56;100.00;98142.09;7394694;19;20046;-86
2022/11/21 05:55:34;;;;;;;0.20;0.20;;;;;;;11.47;100.00;98133.31;7397322;19;20018;-85
2022/11/21 05:58:00;;;;;;;0.10;0.10;;;;;;;11.47;100.00;98133.31;7397401;19;20010;-86
2022/11/21 06:00:27;;;;;;;0.52;0.43;;;;;;;11.51;100.00;98123.38;7394956;19;20853;-86
2022/11/21 06:05:38;;;;;;;0.50;0.50;;;;;;;11.62;100.00;98123.25;7394581;19;20015;-86
2022/11/21 06:08:04;;;;;;;0.95;0.85;;;;;;;11.76;100.00;98110.22;7397924;19;20036;-86
2022/11/21 06:10:30;;;;;;;0.10;0.10;;;;;;;11.85;100.00;98102.22;7396841;19;20026;-86
2022/11/21 06:13:00;;;;;;;0.10;0.10;;;;;;;11.98;100.00;98099.50;7394061;19;20039;-86
2022/11/21 06:15:27;;;;;;;0.50;0.17;;;;;;;12.23;100.00;98096.63;7396303;19;20027;-86
2022/11/21 06:17:53;;;;;;;0.35;0.35;;;;;;;12.27;100.00;98091.50;7394282;19;20469;-86
2022/11/21 06:20:20;;;;;;;0.10;0.10;;;;;;;12.36;100.00;98085.53;7395165;19;20098;-86
2022/11/21 06:22:46;;;;;;;29.70;1.27;;;;;;;12.34;100.00;98079.72;7392432;19;20028;-85
2022/11/21 06:25:12;;;;;;;2.63;0.93;;;;;;;12.34;100.00;98072.13;7394950;19;20022;-86
2022/11/21 06:27:38;;;;;;;0.20;0.20;;;;;;;12.33;100.00;98067.03;7395886;19;20476;-86
2022/11/21 06:30:05;;;;;;;1.70;0.50;;;;;;;12.26;100.00;98062.09;7393197;19;20010;-85
2022/11/21 06:32:36;;;;;;;0.75;0.75;;;;;;;12.27;100.00;98058.00;7398820;19;20010;-86
2022/11/21 06:35:02;;;;;;;6.60;0.50;;;;;;;12.28;100.00;98051.16;7394746;19;20022;-86
2022/11/21 06:37:29;;;;;;;1.60;0.30;;;;;;;12.28;100.00;98042.78;7394268;19;20014;-86
2022/11/21 06:39:55;;;;;;;2.30;0.63;;;;;;;12.23;100.00;98035.25;7392811;19;20022;-86
2022/11/21 06:49:10;;;;;;;4.22;0.82;;;;;;;11.98;100.00;98010.22;7388915;19;20051;-56
2022/11/21 06:51:36;;;;;;;0.50;0.22;;;;;;;11.97;100.00;97997.59;7390775;19;20623;-55
2022/11/21 06:54:03;;;;;;;2.28;0.30;;;;;;;12.05;100.00;98001.25;7392052;19;20010;-56
2022/11/21 06:56:30;;;;;;;0.63;0.63;;;;;;;12.10;100.00;97989.28;7388207;19;20023;-56
2022/11/21 06:58:57;;;;;;;2.22;0.43;;;;;;;12.16;100.00;97989.94;7387562;19;20023;-56
2022/11/21 07:01:24;;;;;;;1.30;0.80;;;;;;;12.24;100.00;97980.91;7387787;19;20402;-56
2022/11/21 07:03:50;;;;;;;4.13;1.40;;;;;;;12.26;100.00;97981.16;7387620;19;20007;-56
2022/11/21 07:06:16;;;;;;;0.20;0.10;;;;;;;12.28;100.00;97968.16;7387857;19;20030;-56
2022/11/21 07:08:42;;;;;;;0.57;0.20;;;;;;;12.44;100.00;97960.78;7391194;19;20007;-56
2022/11/21 07:11:11;;;;;;;0.50;0.38;;;;;;;12.56;100.00;97962.13;7389238;19;20029;-56
2022/11/21 07:13:37;;;;;;;1.00;0.47;;;;;;;12.13;100.00;97956.72;7388963;19;20023;-56
2022/11/21 07:16:08;;;;;;;2.17;0.90;;;;;;;12.32;100.00;97959.47;7388742;19;20081;-56
2022/11/21 07:18:35;;;;;;;1.02;0.55;;;;;;;12.41;100.00;97950.72;7386664;19;20039;-56
2022/11/21 07:21:04;;;;;;;0.40;0.40;;;;;;;12.54;100.00;97950.72;7389357;19;20015;-56
2022/11/21 07:23:31;;;;;;;0.25;0.25;;;;;;;12.69;100.00;97948.16;7392133;19;20014;-56
2022/11/21 07:26:02;;;;;;;5.25;0.60;;;;;;;12.76;100.00;97936.34;7388436;19;20026;-56
2022/11/21 07:28:29;;;;;;;;;;;;;;;12.95;100.00;97934.19;7389516;19;20739;-56
2022/11/21 07:30:56;;;;;;;0.20;0.20;;;;;;;12.93;100.00;97928.38;7388326;19;19946;-56
2022/11/21 07:33:23;;;;;;;0.10;0.10;;;;;;;12.94;100.00;97918.72;7386551;19;20011;-56
2022/11/21 07:35:49;;;;;;;2.75;0.45;;;;;;;12.94;100.00;97918.72;7386282;19;20021;-56
2022/11/21 07:38:16;;;;;;;0.10;0.10;;;;;;;12.95;100.00;97912.59;7386409;19;20010;-56
2022/11/21 07:40:42;;;;;;;0.75;0.32;;;;;;;13.06;100.00;97903.25;7387221;19;20021;-56
2022/11/21 07:43:09;;;;;;;0.20;0.20;;;;;;;13.12;100.00;97901.09;7386594;19;20355;-57
2022/11/21 07:45:36;;;;;;;0.50;0.28;;;;;;;13.24;100.00;97901.59;7386010;19;20084;-56
2022/11/21 07:48:05;;;;;;;0.13;0.13;;;;;;;13.44;100.00;97892.53;7386137;19;20466;-56
2022/11/21 07:50:31;;;;;;;0.63;0.28;;;;;;;13.58;100.00;97911.50;7386268;19;20038;-56
2022/11/21 07:52:59;;;;;;;0.20;0.20;;;;;;;13.60;100.00;97903.31;7387753;19;20014;-56
2022/11/21 07:55:28;;;;;;;0.30;0.30;;;;;;;13.68;100.00;97901.38;7384387;19;20109;-56
2022/11/21 07:57:59;;;;;;;0.30;0.20;;;;;;;13.75;100.00;97894.34;7385747;19;20357;-56
2022/11/21 08:00:27;;;;;;;4.87;0.47;;;;;;;13.74;100.00;97887.25;7391941;19;20360;-56
2022/11/21 08:02:53;;;;;;;0.10;0.10;;;;;;;13.81;100.00;97886.56;7391834;19;20231;-56
2022/11/21 08:05:19;;;;;;;0.88;0.82;;;;;;;13.84;100.00;97890.34;7390763;19;20045;-56
2022/11/21 08:07:45;;;;;;;0.65;0.65;;;;;;;13.89;100.00;97881.03;7394999;19;20014;-56
2022/11/21 08:10:13;;;;;;;0.10;0.10;;;;;;;13.93;100.00;97878.63;7391650;19;20042;-56
2022/11/21 08:12:39;;;;;;;0.85;0.85;;;;;;;14.00;100.00;97863.97;7397013;19;20027;-56
2022/11/21 08:15:06;;;;;;;0.10;0.10;;;;;;;14.07;100.00;97863.28;7394313;19;20011;-56
2022/11/21 08:17:32;;;;;;;0.65;0.45;;;;;;;14.13;100.00;97863.88;7394226;19;20006;-56
2022/11/21 08:19:59;;;;;;;0.20;0.20;;;;;;;14.33;100.00;97851.94;7394915;19;20035;-56
2022/11/21 08:22:26;;;;;;;0.35;0.13;;;;;;;14.44;100.00;97840.44;7398060;19;20019;-57
2022/11/21 08:24:53;;;;;;;0.30;0.30;;;;;;;14.49;100.00;97825.53;7394499;19;20015;-56
2022/11/21 08:27:20;;;;;;;1.45;0.73;;;;;;;14.50;100.00;97820.69;7394371;19;20010;-56
2022/11/21 08:29:47;;;;;;;0.10;0.10;;;;;;;14.56;100.00;97824.81;7390986;19;20011;-56
2022/11/21 08:32:13;;;;;;;1.95;0.40;;;;;;;14.44;100.00;97815.25;7397553;19;20099;-56
2022/11/21 08:34:39;;;;;;;0.22;0.22;;;;;;;14.46;100.00;97809.84;7394127;19;20010;-56
2022/11/21 08:37:06;;;;;;;0.40;0.40;;;;;;;14.30;100.00;97808.22;7393722;19;20015;-57
2022/11/21 08:39:33;;;;;;;0.20;0.20;;;;;;;14.23;100.00;97803.28;7394555;19;20010;-57
2022/11/21 08:42:02;;;;;;;0.40;0.40;;;;;;;14.27;100.00;97789.72;7397267;19;20034;-57
2022/11/21 08:44:30;;;;;;;0.10;0.10;;;;;;;14.37;100.00;97785.13;7391167;19;20010;-57
2022/11/21 08:46:56;;;;;;;2.10;0.55;;;;;;;14.36;100.00;97775.97;7392732;19;20010;-57
2022/11/21 08:49:22;;;;;;;2.58;1.02;;;;;;;14.40;100.00;97764.44;7391658;19;20105;-57
2022/11/21 08:51:49;;;;;;;0.75;0.75;;;;;;;14.42;100.00;97756.97;7395721;19;20017;-57
2022/11/21 08:54:20;;;;;;;0.10;0.10;;;;;;;14.48;100.00;97756.81;7398527;19;20363;-57
2022/11/21 08:56:46;;;;;;;0.68;0.57;;;;;;;14.48;100.00;97759.63;7393259;19;20017;-57
2022/11/21 08:59:12;;;;;;;1.75;0.47;;;;;;;14.57;100.00;97753.50;7393337;19;20014;-57
2022/11/21 09:01:38;;;;;;;1.13;0.75;;;;;;;14.57;100.00;97750.69;7393981;19;20014;-57
2022/11/21 09:04:05;;;;;;;4.75;0.73;;;;;;;14.65;100.00;97731.88;7393094;19;20011;-56
2022/11/21 09:06:31;;;;;;;0.35;0.35;;;;;;;14.71;100.00;97723.28;7391550;19;20487;-57
2022/11/21 09:08:58;;;;;;;0.10;0.10;;;;;;;14.77;100.00;97721.06;7390918;19;20372;-57
2022/11/21 09:11:24;;;;;;;2.28;0.30;;;;;;;14.85;100.00;97708.59;7391907;19;20015;-58
2022/11/21 09:19:22;;;;;;;0.13;0.13;;;;;;;14.88;100.00;97698.28;7392998;19;20017;-57
2022/11/21 09:21:49;;;;;;;1.17;0.52;;;;;;;14.87;100.00;97697.56;7394447;19;20014;-57
2022/11/21 09:24:15;;;;;;;2.85;1.55;;;;;;;14.84;100.00;97687.47;7396252;19;20019;-58
2022/11/21 09:26:42;;;;;;;1.08;1.08;;;;;;;14.81;100.00;97682.97;7390122;19;20010;-57
2022/11/21 09:29:13;;;;;;;11.80;1.67;;;;;;;14.87;100.00;97675.16;7390809;19;20015;-57
2022/11/21 09:31:40;;;;;;;6.55;1.40;;;;;;;15.02;100.00;97668.81;7393940;19;20039;-57
2022/11/21 09:34:07;;;;;;;0.85;0.47;;;;;;;15.10;100.00;97670.31;7391707;19;20856;-57
2022/11/21 09:36:34;;;;;;;0.30;0.20;;;;;;;15.02;100.00;97649.94;7391620;19;20095;-57
2022/11/21 09:39:00;;;;;;;0.10;0.10;;;;;;;14.93;100.00;97653.28;7392871;19;20335;-57
2022/11/21 09:41:53;;;;;;;1.35;0.57;;;;;;;14.86;100.00;97648.41;7393285;19;20663;-57
2022/11/21 09:44:31;;;;;;;0.43;0.40;;;;;;;14.89;100.00;97638.91;7391844;19;20066;-57
2022/11/21 09:47:15;;;;;;;0.10;0.10;;;;;;;14.80;100.00;97631.03;7392097;19;20350;-57
2022/11/21 09:49:48;;;;;;;0.30;0.30;;;;;;;14.83;100.00;97621.53;7390933;19;20010;-57
2022/11/21 09:52:18;;;;;;;0.20;0.10;;;;;;;14.84;100.00;97609.00;7394796;19;20010;-57
2022/11/21 09:54:56;;;;;;;0.20;0.20;;;;;;;14.95;100.00;97589.00;7391531;19;20010;-57
2022/11/21 09:57:25;;;;;;;1.55;0.55;;;;;;;15.05;100.00;97584.34;7391072;19;20022;-57
2022/11/21 09:59:52;;;;;;;4.43;0.15;;;;;;;15.08;100.00;97569.19;7391161;19;20017;-57
2022/11/21 10:02:20;;;;;;;0.40;0.30;;;;;;;15.07;100.00;97566.97;7395556;19;20379;-57
2022/11/21 10:04:47;;;;;;;1.15;1.02;;;;;;;15.16;100.00;97558.72;7391657;19;20014;-57
2022/11/21 10:07:19;;;;;;;1.75;1.23;;;;;;;15.26;100.00;97558.16;7390769;19;20011;-57
2022/11/21 10:10:33;;;;;;;1.65;1.20;;;;;;;15.36;100.00;97545.03;7389413;19;20495;-57
2022/11/21 10:13:35;;;;;;;0.85;0.63;;;;;;;15.47;100.00;97539.06;7387261;19;20010;-57
2022/11/21 10:16:35;;;;;;;0.10;0.10;;;;;;;15.43;100.00;97527.44;7390177;19;20011;-57
2022/11/21 10:19:26;;;;;;;3.50;0.77;;;;;;;15.35;100.00;97526.72;7390778;19;20010;-57
2022/11/21 10:22:04;;;;;;;;;;;;;;;15.38;100.00;97519.97;7393738;19;20039;-58
2022/11/21 10:24:39;;;;;;;28.90;1.00;;;;;;;15.53;100.00;97508.75;7390331;19;20248;-57
2022/11/21 10:27:14;;;;;;;0.17;0.10;;;;;;;15.59;100.00;97509.31;7390784;19;20018;-57
2022/11/21 10:29:53;;;;;;;0.10;0.10;;;;;;;15.61;100.00;97515.09;7390094;19;20024;-57
2022/11/21 10:32:24;;;;;;;3.92;0.88;;;;;;;15.70;100.00;97512.41;7394838;19;20331;-57
2022/11/21 10:34:56;;;;;;;6.00;0.80;;;;;;;15.63;100.00;97495.63;7389516;19;20030;-57
2022/11/21 10:37:35;;;;;;;0.10;0.10;;;;;;;15.83;100.00;97489.72;7390828;19;20010;-57
2022/11/21 10:40:34;;;;;;;1.58;0.32;;;;;;;15.80;100.00;97484.50;7391099;19;20070;-56
2022/11/21 10:45:54;;;;;;;23.48;1.38;;;;;;;15.85;100.00;97466.72;7389440;19;20022;-56
2022/11/21 10:48:20;;;;;;;1.95;0.45;;;;;;;15.90;100.00;97457.31;7390435;19;20017;-57
2022/11/21 10:51:11;;;;;;;1.45;1.13;;;;;;;16.03;100.00;97447.88;7390549;19;20355;-56
2022/11/21 10:56:26;;;;;;;3.92;1.05;;;;;;;15.94;100.00;97435.97;7390194;19;20021;-57
2022/11/21 10:58:58;;;;;;;3.58;0.93;;;;;;;15.95;100.00;97425.47;7389839;19;20018;-57
2022/11/21 11:01:25;;;;;;;4.30;0.57;;;;;;;16.08;100.00;97425.22;7391793;19;20007;-56
2022/11/21 11:04:19;;;;;;;11.65;1.33;;;;;;;16.19;100.00;97407.16;7389604;19;20006;-56
2022/11/21 11:06:46;;;;;;;1.45;0.80;;;;;;;16.16;99.62;97394.25;7387674;19;20018;-56
2022/11/21 11:09:30;;;;;;;2.10;0.65;;;;;;;15.97;100.00;97406.00;7388610;19;20030;-57
2022/11/21 11:15:24;;;;;;;5.32;1.55;;;;;;;15.75;100.00;97373.22;7390192;19;20466;-57
2022/11/21 11:17:56;;;;;;;0.40;0.20;;;;;;;15.76;100.00;97366.31;7390621;19;20541;-58
2022/11/21 11:20:43;;;;;;;1.45;0.55;;;;;;;15.74;100.00;97352.09;7388399;19;20025;-57
2022/11/21 11:23:18;;;;;;;1.10;0.55;;;;;;;15.88;100.00;97342.06;7392043;19;20617;-57
2022/11/21 11:25:50;;;;;;;3.92;2.28;;;;;;;15.78;100.00;97332.78;7389121;19;20039;-58
2022/11/21 11:28:19;;;;;;;6.63;0.50;;;;;;;15.79;100.00;97331.47;7388145;19;20486;-58
2022/11/21 11:30:50;;;;;;;0.40;0.38;;;;;;;15.81;100.00;97323.97;7389477;19;20643;-58
2022/11/21 11:33:36;;;;;;;17.10;0.77;;;;;;;15.76;100.00;97310.94;7388515;19;20097;-58
2022/11/21 11:36:14;;;;;;;0.15;0.13;;;;;;;15.76;100.00;97310.19;7396461;19;20011;-58
2022/11/21 11:38:45;;;;;;;2.55;1.40;;;;;;;15.69;100.00;97302.53;7395134;19;20120;-58
2022/11/21 11:41:21;;;;;;;3.50;1.27;;;;;;;15.66;100.00;97300.88;7396892;19;20033;-58
2022/11/21 11:50:32;;;;;;;0.32;0.32;;;;;;;15.64;100.00;97283.88;7394214;19;20010;-59
2022/11/21 11:52:51;;;;;;;0.52;0.28;;;;;;;15.46;100.00;97271.13;7396774;19;20755;-59
2022/11/21 11:55:23;;;;;;;0.40;0.40;;;;;;;15.78;100.00;97271.06;7396021;19;20011;-58
2022/11/21 11:57:52;;;;;;;0.73;0.28;;;;;;;15.84;100.00;97257.53;7395555;19;20023;-59
2022/11/21 12:00:30;;;;;;;0.52;0.20;;;;;;;15.83;100.00;97256.78;7395627;19;20009;-59
2022/11/21 12:03:12;;;;;;;3.17;0.57;;;;;;;15.92;100.00;97241.34;7395634;19;20534;-59
2022/11/21 12:05:50;;;;;;;0.40;0.40;;;;;;;15.88;100.00;97246.63;7395484;19;20074;-58
2022/11/21 12:08:23;;;;;;;0.80;0.80;;;;;;;15.94;100.00;97233.09;7398208;19;20040;-59
2022/11/21 12:13:54;;;;;;;2.05;0.57;;;;;;;16.14;100.00;97220.75;7396115;19;20070;-57
2022/11/21 12:16:23;;;;;;;0.25;0.10;;;;;;;16.14;100.00;97212.31;7395076;19;20488;-58